Terminal Aerodrome Forecast
Issued by NWS

Home | Current Version | Previous Version | Text Only | Print | Product List | Glossary On
Versions: 1 2 3 4 5 6 7 8 9 10 11 12 13 14 15 16 17 18 19
000
FTUS45 KTFX 231314 AAC
TAFCTB
TAF AMD
KCTB 231314Z 2313/2412 VRB03KT 2SM BR SCT004 BKN060
      TEMPO 2313/2314 1/4SM FZFG BKN001
     FM231600 VRB05KT P6SM BKN010 BKN080
     FM231800 VRB05KT P6SM FEW015 SCT090=

USA.gov is the U.S. government's official web portal to all federal, state and local government web resources and services.